Flint, Michigan
Current Conditions -  °F | °C
As of 11:53 AM on Wednesday 26 Nov 2014 (Local Time) from KFNT Reporting Station
Overcast Overcast  
Wind Chill: 33°   Ceiling: 3300
Heat Index: 33°   Visibility: 10mi
Dew Point: 20°   Wind: 3mph
Humidity: 59%   Direction: 60°ENE
Pressure: 30.15"   Gusts: NA
Location:  43.01°N, 83.68°W
Report Text: KFNT 261653Z 06003KT 10SM OVC033 01/M07 A3015 RMK AO2 SLP218 T00061067
Loading
Personal Weather Stations






























Interactive Weather Map New forecast layout! Learn more

10-Day Weather Forecast

Advertisements
Track Severe Weather on mobile